Time;durP1;ratioP1;P1;durP2;ratioP2;P2;SDS_P1;SDS_P2;PMS_P1;PMS_P2;Temp;Humidity;BMP_temperature;BMP_pressure;BME280_temperature;BME280_humidity;BME280_pressure;Samples;Min_cycle;Max_cycle;Signal;HPM_P1;HPM_P2
2022/05/09 00:00:31;;;;;;;11.35;2.88;;;7.60;99.90;;;;;;5045510;28;20037;-67
2022/05/09 00:02:57;;;;;;;9.52;2.45;;;7.60;99.90;;;;;;5035756;28;20180;-67
2022/05/09 00:05:25;;;;;;;15.13;3.35;;;7.60;99.90;;;;;;5050572;28;20041;-67
2022/05/09 00:07:51;;;;;;;14.57;3.60;;;7.60;99.90;;;;;;5030830;28;20124;-67
2022/05/09 00:10:20;;;;;;;12.25;3.17;;;7.50;99.90;;;;;;5053348;28;20060;-67
2022/05/09 00:12:46;;;;;;;14.32;2.72;;;7.50;99.90;;;;;;5072242;28;20402;-66
2022/05/09 00:15:15;;;;;;;9.07;2.65;;;7.50;99.90;;;;;;5062648;28;20115;-67
2022/05/09 00:17:40;;;;;;;11.20;2.83;;;7.50;99.90;;;;;;5073063;28;20048;-67
2022/05/09 00:20:07;;;;;;;10.43;2.97;;;7.50;99.90;;;;;;5072921;28;20047;-67
2022/05/09 00:22:44;;;;;;;11.82;3.47;;;7.50;99.90;;;;;;5068815;28;20044;-67
2022/05/09 00:25:09;;;;;;;12.10;2.92;;;7.50;99.90;;;;;;5065891;28;20047;-66
2022/05/09 00:27:35;;;;;;;9.82;2.65;;;7.50;99.90;;;;;;5066641;28;20411;-67
2022/05/09 00:30:01;;;;;;;15.15;3.50;;;7.50;99.90;;;;;;5069754;28;20137;-67
2022/05/09 00:32:27;;;;;;;11.43;2.70;;;7.50;99.90;;;;;;5063244;28;20040;-67
2022/05/09 00:34:53;;;;;;;13.38;2.80;;;7.50;99.90;;;;;;5055657;28;20033;-67
2022/05/09 00:37:19;;;;;;;10.85;3.03;;;7.50;99.90;;;;;;5068479;28;20043;-67
2022/05/09 00:39:46;;;;;;;12.93;2.95;;;7.50;99.90;;;;;;5066169;28;20068;-67
2022/05/09 00:42:14;;;;;;;7.85;2.53;;;7.50;99.90;;;;;;5071392;28;20051;-67
2022/05/09 00:44:41;;;;;;;13.20;3.58;;;7.50;99.90;;;;;;5063051;28;20568;-66
2022/05/09 00:47:08;;;;;;;12.65;2.72;;;7.50;99.90;;;;;;5061931;28;20036;-66
2022/05/09 00:49:50;;;;;;;10.80;3.05;;;7.50;99.90;;;;;;5059748;28;20087;-67
2022/05/09 00:52:23;;;;;;;10.45;2.92;;;7.40;99.90;;;;;;5065728;28;20039;-67
2022/05/09 00:55:23;;;;;;;12.02;2.95;;;7.50;99.90;;;;;;5047144;28;20422;-67
2022/05/09 00:58:00;;;;;;;10.70;3.05;;;7.40;99.90;;;;;;4957602;28;20598;-67
2022/05/09 01:00:26;;;;;;;12.00;2.88;;;7.40;99.90;;;;;;4973797;28;20061;-67
2022/05/09 01:02:59;;;;;;;11.55;2.90;;;7.40;99.90;;;;;;4974242;28;20039;-67
2022/05/09 01:05:27;;;;;;;10.02;3.35;;;7.40;99.90;;;;;;4973286;28;20034;-66
2022/05/09 01:07:54;;;;;;;9.38;2.85;;;7.40;99.90;;;;;;4989746;28;20050;-66
2022/05/09 01:10:25;;;;;;;17.35;3.35;;;7.30;99.90;;;;;;4960010;28;20183;-67
2022/05/09 01:12:52;;;;;;;13.70;3.05;;;7.30;99.90;;;;;;4953790;28;20402;-67
2022/05/09 01:15:18;;;;;;;11.35;3.30;;;7.30;99.90;;;;;;4969986;28;20277;-67
2022/05/09 01:17:47;;;;;;;8.90;2.80;;;7.30;99.90;;;;;;4970470;28;20031;-67
2022/05/09 01:20:13;;;;;;;10.40;3.00;;;7.20;99.90;;;;;;4937166;28;20137;-67
2022/05/09 01:22:41;;;;;;;9.52;2.78;;;7.20;99.90;;;;;;4954293;28;20155;-66
2022/05/09 01:25:10;;;;;;;12.43;3.00;;;7.20;99.90;;;;;;4952889;28;20100;-67
2022/05/09 01:27:40;;;;;;;11.95;3.03;;;7.20;99.90;;;;;;4954680;28;20051;-67
2022/05/09 01:30:12;;;;;;;15.98;2.80;;;7.10;99.90;;;;;;4953862;28;20057;-67
2022/05/09 01:32:48;;;;;;;10.35;2.83;;;7.10;99.90;;;;;;4969804;28;20105;-67
2022/05/09 01:35:22;;;;;;;9.25;2.70;;;7.10;99.90;;;;;;5045968;28;20043;-66
2022/05/09 01:37:52;;;;;;;13.40;3.33;;;7.00;99.90;;;;;;5048783;28;20399;-67
2022/05/09 01:40:18;;;;;;;7.82;2.85;;;7.00;99.90;;;;;;5040844;28;20036;-67
2022/05/09 01:42:44;;;;;;;10.90;3.40;;;6.90;99.90;;;;;;5023977;28;20044;-67
2022/05/09 01:45:12;;;;;;;13.27;3.95;;;6.90;99.90;;;;;;5048850;28;20033;-66
2022/05/09 01:50:23;;;;;;;13.45;3.03;;;6.80;99.90;;;;;;5037870;28;20064;-66
2022/05/09 01:52:49;;;;;;;10.63;3.13;;;6.80;99.90;;;;;;5038561;28;20049;-67
2022/05/09 01:55:15;;;;;;;15.88;3.38;;;6.70;99.90;;;;;;5035601;28;20237;-67
2022/05/09 01:57:40;;;;;;;8.35;3.55;;;6.70;99.90;;;;;;5050161;28;20050;-66
2022/05/09 02:00:08;;;;;;;12.25;3.10;;;6.70;99.90;;;;;;5028611;28;20695;-67
2022/05/09 02:02:34;;;;;;;14.02;3.80;;;6.70;99.90;;;;;;5043083;28;20368;-67
2022/05/09 02:05:01;;;;;;;11.32;3.25;;;6.70;99.90;;;;;;5041605;28;20040;-67
2022/05/09 02:07:27;;;;;;;9.90;3.28;;;6.60;99.90;;;;;;5039248;28;20033;-66
2022/05/09 02:09:53;;;;;;;14.07;3.75;;;6.60;99.90;;;;;;5044837;28;20498;-67
2022/05/09 02:12:19;;;;;;;12.07;3.63;;;6.60;99.90;;;;;;5051513;28;20062;-66
2022/05/09 02:14:46;;;;;;;10.85;3.40;;;6.50;99.90;;;;;;5069973;28;20364;-67
2022/05/09 02:17:13;;;;;;;14.48;3.70;;;6.50;99.90;;;;;;5050419;28;20052;-67
2022/05/09 02:19:39;;;;;;;13.23;3.35;;;6.50;99.90;;;;;;5052546;28;20043;-66
2022/05/09 02:22:06;;;;;;;11.68;3.30;;;6.50;99.90;;;;;;5048911;28;20090;-67
2022/05/09 02:24:32;;;;;;;12.32;3.60;;;6.50;99.90;;;;;;5051547;28;20041;-67
2022/05/09 02:26:58;;;;;;;10.52;3.38;;;6.40;99.90;;;;;;5051292;28;20046;-67
2022/05/09 02:29:24;;;;;;;12.63;3.40;;;6.40;99.90;;;;;;5049972;28;20072;-67
2022/05/09 02:31:49;;;;;;;12.25;3.75;;;6.30;99.90;;;;;;5051391;28;20044;-66
2022/05/09 02:34:15;;;;;;;11.25;3.42;;;6.30;99.90;;;;;;5051980;28;20040;-66
2022/05/09 02:36:41;;;;;;;7.18;3.10;;;6.30;99.90;;;;;;5052327;28;20044;-67
2022/05/09 02:39:07;;;;;;;12.82;3.22;;;6.20;99.90;;;;;;5050663;28;20245;-66
2022/05/09 02:41:33;;;;;;;10.82;2.95;;;6.20;99.90;;;;;;5069761;28;20434;-67
2022/05/09 02:43:59;;;;;;;11.50;3.00;;;6.20;99.90;;;;;;5051101;28;20041;-67
2022/05/09 02:46:25;;;;;;;10.75;3.50;;;6.10;99.90;;;;;;5051293;28;20035;-66
2022/05/09 02:48:51;;;;;;;11.80;3.58;;;6.10;99.90;;;;;;5052443;28;20072;-67
2022/05/09 02:51:17;;;;;;;10.05;2.60;;;6.10;99.90;;;;;;5051195;28;20075;-66
2022/05/09 02:53:43;;;;;;;8.45;3.05;;;6.10;99.90;;;;;;5066632;28;20115;-66
2022/05/09 02:56:10;;;;;;;12.90;3.50;;;6.10;99.90;;;;;;5051368;28;20546;-66
2022/05/09 02:58:36;;;;;;;10.80;3.47;;;6.10;99.90;;;;;;5051026;28;20577;-66
2022/05/09 03:01:03;;;;;;;13.02;3.35;;;6.10;99.90;;;;;;5069548;28;20076;-66
2022/05/09 03:06:13;;;;;;;7.78;3.65;;;6.00;99.90;;;;;;5049859;28;20496;-67
2022/05/09 03:08:39;;;;;;;6.65;2.75;;;6.00;99.90;;;;;;5050318;28;20049;-66
2022/05/09 03:11:05;;;;;;;12.10;3.65;;;6.00;99.90;;;;;;5055442;28;20061;-66
2022/05/09 03:13:31;;;;;;;9.18;3.20;;;5.90;99.90;;;;;;5075678;28;20044;-66
2022/05/09 03:15:58;;;;;;;10.65;3.25;;;5.90;99.90;;;;;;5084996;28;20040;-66
2022/05/09 03:18:25;;;;;;;9.43;2.92;;;5.90;99.90;;;;;;5062041;28;20452;-67
2022/05/09 03:20:51;;;;;;;10.80;2.97;;;5.80;99.90;;;;;;5053509;28;20070;-67
2022/05/09 03:23:17;;;;;;;8.80;3.13;;;5.90;99.90;;;;;;5057265;28;20105;-67
2022/05/09 03:25:43;;;;;;;12.25;3.60;;;5.80;99.90;;;;;;5063807;28;20449;-67
2022/05/09 03:28:12;;;;;;;10.50;3.35;;;5.70;99.90;;;;;;5058096;28;20071;-66
2022/05/09 03:30:39;;;;;;;8.50;3.13;;;5.70;99.90;;;;;;5086016;28;20119;-66
2022/05/09 03:33:06;;;;;;;11.63;3.10;;;5.70;99.90;;;;;;5046292;28;20080;-67
2022/05/09 03:35:32;;;;;;;13.27;3.28;;;5.70;99.90;;;;;;5054111;28;20079;-66
2022/05/09 03:37:58;;;;;;;14.63;4.20;;;5.60;99.90;;;;;;5069345;28;20036;-67
2022/05/09 03:40:24;;;;;;;10.27;3.08;;;5.60;99.90;;;;;;5067270;28;20064;-66
2022/05/09 03:42:49;;;;;;;9.90;3.50;;;5.60;99.90;;;;;;5065168;28;20451;-66
2022/05/09 03:45:16;;;;;;;11.80;3.78;;;5.50;99.90;;;;;;5066463;28;20070;-66
2022/05/09 03:47:42;;;;;;;13.65;3.75;;;5.50;99.90;;;;;;5065126;28;20051;-67
2022/05/09 03:50:10;;;;;;;13.50;3.72;;;5.50;99.90;;;;;;5059729;28;20414;-66
2022/05/09 03:52:36;;;;;;;11.00;3.78;;;5.50;99.90;;;;;;5063445;28;20044;-67
2022/05/09 03:55:01;;;;;;;8.88;3.28;;;5.50;99.90;;;;;;5067979;28;20036;-67
2022/05/09 03:57:27;;;;;;;11.80;3.47;;;5.50;99.90;;;;;;5067870;28;20482;-67
2022/05/09 03:59:53;;;;;;;14.90;4.00;;;5.50;99.90;;;;;;5070261;28;20043;-66
2022/05/09 04:02:18;;;;;;;8.88;3.47;;;5.50;99.90;;;;;;5060057;28;20368;-67
2022/05/09 04:04:44;;;;;;;14.60;3.92;;;5.50;99.90;;;;;;5067850;28;20204;-68
2022/05/09 04:07:09;;;;;;;13.18;3.67;;;5.50;99.90;;;;;;5070926;28;20046;-67
2022/05/09 04:09:36;;;;;;;11.07;3.65;;;5.50;99.90;;;;;;5070088;28;20044;-66
2022/05/09 04:12:02;;;;;;;12.75;3.97;;;5.50;99.90;;;;;;5045637;28;20123;-66
2022/05/09 04:17:14;;;;;;;12.10;4.53;;;5.50;99.90;;;;;;5065091;28;20036;-66
2022/05/09 04:19:41;;;;;;;10.70;3.60;;;5.60;99.90;;;;;;5068168;28;20128;-66
2022/05/09 04:22:06;;;;;;;13.95;4.47;;;5.60;99.90;;;;;;5065448;28;20092;-66
2022/05/09 04:24:33;;;;;;;14.35;3.88;;;5.70;99.90;;;;;;5071388;28;20122;-66
2022/05/09 04:27:00;;;;;;;11.32;3.53;;;5.70;99.90;;;;;;5082874;28;20093;-67
2022/05/09 04:29:26;;;;;;;13.30;4.00;;;5.70;99.90;;;;;;5073036;28;20043;-66
2022/05/09 04:31:52;;;;;;;11.55;3.90;;;5.70;99.90;;;;;;5080621;28;20028;-72
2022/05/09 04:34:18;;;;;;;13.32;4.18;;;5.80;99.90;;;;;;5057598;28;20117;-66
2022/05/09 04:36:43;;;;;;;8.82;3.78;;;5.80;99.90;;;;;;5067391;28;20399;-68
2022/05/09 04:39:09;;;;;;;12.77;4.03;;;5.90;99.90;;;;;;5071149;28;20043;-68
2022/05/09 04:41:36;;;;;;;14.30;4.35;;;5.90;99.90;;;;;;5067985;28;20052;-68
2022/05/09 04:44:05;;;;;;;13.70;4.30;;;6.00;99.90;;;;;;5047166;28;20050;-67
2022/05/09 04:46:31;;;;;;;10.70;3.80;;;6.00;99.90;;;;;;5066954;28;20371;-66
2022/05/09 04:48:57;;;;;;;12.85;4.47;;;6.10;99.90;;;;;;5070005;28;20089;-67
2022/05/09 04:51:22;;;;;;;9.45;3.70;;;6.10;99.90;;;;;;5064121;28;20035;-66
2022/05/09 04:53:49;;;;;;;13.85;4.10;;;6.20;99.90;;;;;;5056148;28;20032;-67
2022/05/09 04:56:17;;;;;;;16.42;4.20;;;6.30;99.90;;;;;;5059373;28;20107;-67
2022/05/09 04:58:42;;;;;;;14.50;4.80;;;6.40;99.90;;;;;;5054288;28;20048;-68
2022/05/09 05:01:09;;;;;;;12.00;4.70;;;6.50;99.90;;;;;;5073588;28;20046;-68
2022/05/09 05:03:35;;;;;;;11.07;4.00;;;6.50;99.90;;;;;;5084317;28;20511;-67
2022/05/09 05:06:01;;;;;;;13.30;4.25;;;6.70;99.90;;;;;;5064410;28;20083;-67
2022/05/09 05:08:33;;;;;;;8.60;4.22;;;6.80;99.90;;;;;;5073255;28;20513;-67
2022/05/09 05:10:59;;;;;;;9.35;4.10;;;6.80;99.90;;;;;;5053545;28;20110;-66
2022/05/09 05:13:26;;;;;;;12.52;5.13;;;6.90;99.90;;;;;;5046178;28;20047;-66
2022/05/09 05:15:53;;;;;;;18.60;5.15;;;7.00;99.90;;;;;;5039526;28;20793;-66
2022/05/09 05:18:20;;;;;;;14.13;4.95;;;7.10;99.90;;;;;;5036325;28;20055;-67
2022/05/09 05:20:45;;;;;;;13.65;4.70;;;7.20;99.90;;;;;;5041568;28;20522;-66
2022/05/09 05:23:11;;;;;;;12.05;4.82;;;7.30;99.90;;;;;;5047400;28;20040;-66
2022/05/09 05:25:40;;;;;;;16.25;5.15;;;7.50;99.90;;;;;;5042326;28;20051;-66
2022/05/09 05:28:06;;;;;;;18.55;5.70;;;7.60;99.90;;;;;;5048568;28;20040;-66
2022/05/09 05:30:32;;;;;;;12.52;4.22;;;7.70;99.90;;;;;;5035291;28;20032;-66
2022/05/09 05:32:59;;;;;;;15.27;5.32;;;7.70;99.90;;;;;;5044764;28;20167;-68
2022/05/09 05:35:25;;;;;;;16.52;4.80;;;7.90;99.90;;;;;;5068418;28;20411;-66
2022/05/09 05:37:51;;;;;;;12.93;4.57;;;7.90;99.90;;;;;;5044098;28;20045;-66
2022/05/09 05:40:17;;;;;;;16.27;4.82;;;8.10;99.90;;;;;;5033327;28;20091;-67
2022/05/09 05:42:44;;;;;;;16.48;4.90;;;8.20;99.90;;;;;;5035803;28;20119;-66
2022/05/09 05:45:12;;;;;;;14.68;4.88;;;8.30;99.90;;;;;;5038027;28;20037;-66
2022/05/09 05:47:38;;;;;;;12.93;4.68;;;8.50;99.90;;;;;;5045634;28;20048;-66
2022/05/09 05:50:06;;;;;;;15.82;5.25;;;8.60;99.90;;;;;;5052560;28;20040;-67
2022/05/09 05:52:32;;;;;;;21.80;5.22;;;8.70;99.90;;;;;;5049412;28;20479;-66
2022/05/09 05:54:57;;;;;;;18.45;4.80;;;8.90;99.90;;;;;;5069797;28;20029;-67
2022/05/09 05:57:26;;;;;;;16.45;4.90;;;9.00;99.90;;;;;;5051580;28;20040;-66
2022/05/09 05:59:57;;;;;;;16.05;4.80;;;9.10;99.90;;;;;;5052254;28;20506;-67
2022/05/09 06:02:24;;;;;;;15.77;5.22;;;9.20;99.90;;;;;;5051395;28;21255;-66
2022/05/09 06:04:50;;;;;;;12.50;4.55;;;9.40;99.90;;;;;;5033195;28;20546;-67
2022/05/09 06:07:17;;;;;;;15.80;5.25;;;9.50;99.90;;;;;;5033642;28;20094;-66
2022/05/09 06:09:45;;;;;;;11.90;4.82;;;9.70;99.90;;;;;;5040360;28;20056;-68
2022/05/09 06:12:12;;;;;;;14.32;4.85;;;9.80;99.90;;;;;;5058516;28;20048;-68
2022/05/09 06:14:38;;;;;;;14.18;5.03;;;10.00;99.90;;;;;;5078041;28;20040;-67
2022/05/09 06:17:05;;;;;;;16.48;5.28;;;10.20;99.90;;;;;;5085252;28;20044;-67
2022/05/09 06:19:32;;;;;;;12.27;4.57;;;10.30;99.90;;;;;;5054916;28;20069;-66
2022/05/09 06:21:58;;;;;;;13.48;4.60;;;10.50;99.90;;;;;;5072082;28;20540;-66
2022/05/09 06:24:24;;;;;;;14.82;5.20;;;10.60;99.90;;;;;;5054865;28;20108;-67
2022/05/09 06:26:50;;;;;;;14.02;4.63;;;10.70;99.90;;;;;;5062471;28;20131;-67
2022/05/09 06:29:16;;;;;;;18.65;5.93;;;10.90;99.90;;;;;;5042087;28;20139;-68
2022/05/09 06:31:42;;;;;;;13.90;5.07;;;11.00;99.90;;;;;;5055117;28;20102;-67
2022/05/09 06:34:11;;;;;;;11.60;4.70;;;11.20;99.90;;;;;;5051726;28;20082;-65
2022/05/09 06:36:38;;;;;;;14.48;4.28;;;11.40;99.90;;;;;;5052375;28;20048;-65
2022/05/09 06:39:06;;;;;;;14.63;5.63;;;11.50;99.90;;;;;;5051329;28;20055;-67
2022/05/09 06:41:31;;;;;;;12.10;4.47;;;11.60;99.90;;;;;;5072108;28;20040;-68
2022/05/09 06:43:57;;;;;;;17.58;4.95;;;11.70;99.90;;;;;;5035551;28;20063;-69
2022/05/09 06:46:23;;;;;;;10.52;4.43;;;11.80;99.90;;;;;;5054140;28;20036;-67
2022/05/09 06:48:48;;;;;;;14.68;5.43;;;12.00;99.90;;;;;;5069488;28;20041;-67
2022/05/09 06:51:14;;;;;;;16.05;4.25;;;12.10;99.90;;;;;;5056030;28;20037;-67
2022/05/09 06:53:41;;;;;;;14.30;4.88;;;12.30;99.90;;;;;;5069542;28;20153;-67
2022/05/09 06:56:08;;;;;;;13.98;4.78;;;12.40;99.90;;;;;;5051693;28;20472;-68
2022/05/09 06:58:34;;;;;;;16.92;4.72;;;12.50;99.90;;;;;;5051401;28;20040;-67
2022/05/09 07:00:59;;;;;;;17.70;5.40;;;12.70;99.90;;;;;;5054101;28;20384;-67
2022/05/09 07:03:27;;;;;;;12.43;4.25;;;12.80;99.90;;;;;;5054695;28;20041;-67
2022/05/09 07:05:55;;;;;;;16.73;4.93;;;13.00;99.90;;;;;;5066540;28;20075;-67
2022/05/09 07:08:23;;;;;;;18.17;5.10;;;13.20;99.90;;;;;;5071595;28;20040;-67
2022/05/09 07:10:49;;;;;;;14.00;4.85;;;13.30;99.90;;;;;;5059623;28;20053;-67
2022/05/09 07:13:15;;;;;;;16.13;4.50;;;13.50;99.90;;;;;;5052875;28;20044;-67
2022/05/09 07:15:40;;;;;;;14.35;5.07;;;13.60;99.90;;;;;;5068585;28;20043;-67
2022/05/09 07:18:06;;;;;;;13.07;4.82;;;13.70;99.90;;;;;;5070950;28;20036;-66
2022/05/09 07:20:34;;;;;;;11.85;4.50;;;13.90;99.90;;;;;;5059692;28;20033;-67
2022/05/09 07:23:10;;;;;;;11.52;4.68;;;14.10;99.90;;;;;;5055318;28;20084;-67
2022/05/09 07:25:37;;;;;;;12.98;4.20;;;14.30;99.90;;;;;;5059995;28;20540;-68
2022/05/09 07:28:04;;;;;;;12.38;4.53;;;14.40;99.90;;;;;;5056321;28;20455;-68
2022/05/09 07:30:29;;;;;;;11.15;4.20;;;14.50;99.90;;;;;;5055499;28;20037;-68
2022/05/09 07:32:55;;;;;;;15.63;4.32;;;14.80;99.90;;;;;;5055465;28;20067;-69
2022/05/09 07:35:22;;;;;;;15.70;4.53;;;14.90;99.90;;;;;;5055213;28;20055;-67
2022/05/09 07:37:48;;;;;;;13.00;4.55;;;15.00;99.90;;;;;;5055898;28;20048;-67
2022/05/09 07:40:16;;;;;;;8.43;3.55;;;15.20;99.90;;;;;;5055056;28;20040;-68
2022/05/09 07:42:44;;;;;;;10.18;3.97;;;15.40;99.90;;;;;;5073348;28;20506;-67
2022/05/09 07:45:12;;;;;;;14.30;4.70;;;15.50;99.90;;;;;;5055481;28;20438;-68
2022/05/09 07:47:39;;;;;;;10.05;3.95;;;15.70;99.90;;;;;;5055521;28;20426;-67
2022/05/09 07:50:07;;;;;;;10.88;3.72;;;15.90;99.90;;;;;;5055174;28;20040;-67
2022/05/09 07:52:32;;;;;;;11.48;3.97;;;16.00;99.90;;;;;;5038706;28;20518;-66
2022/05/09 07:54:58;;;;;;;11.73;4.43;;;16.20;99.90;;;;;;5073201;28;20033;-68
2022/05/09 07:57:24;;;;;;;12.38;3.95;;;16.30;99.90;;;;;;5054895;28;20036;-68
2022/05/09 07:59:50;;;;;;;11.90;3.55;;;16.40;99.90;;;;;;5055135;28;20037;-67
2022/05/09 08:02:15;;;;;;;13.20;3.90;;;16.50;99.90;;;;;;5055056;28;20044;-68
2022/05/09 08:04:41;;;;;;;11.27;4.28;;;16.70;99.90;;;;;;5055245;28;20043;-67
2022/05/09 08:07:07;;;;;;;10.95;3.55;;;16.90;99.90;;;;;;5054968;28;20048;-67
2022/05/09 08:09:33;;;;;;;12.35;3.95;;;17.00;99.90;;;;;;5037705;28;20040;-68
2022/05/09 08:12:00;;;;;;;11.07;4.07;;;17.20;99.90;;;;;;5038528;28;20037;-69
2022/05/09 08:14:27;;;;;;;12.15;3.85;;;17.40;99.90;;;;;;5054681;28;20044;-67
2022/05/09 08:16:52;;;;;;;10.27;3.78;;;17.50;99.90;;;;;;5054878;28;20445;-68
2022/05/09 08:19:19;;;;;;;11.80;3.33;;;17.60;99.90;;;;;;5054594;28;20123;-67
2022/05/09 08:21:49;;;;;;;10.80;3.30;;;17.80;99.90;;;;;;5054746;28;20395;-68
2022/05/09 08:24:15;;;;;;;12.35;3.40;;;17.90;99.50;;;;;;5054445;28;20044;-67
2022/05/09 08:26:41;;;;;;;7.03;2.65;;;18.00;98.90;;;;;;5072494;28;20119;-68
2022/05/09 08:29:07;;;;;;;8.32;3.22;;;18.00;98.20;;;;;;5054005;28;20123;-69
2022/05/09 08:31:33;;;;;;;10.63;2.83;;;18.10;97.40;;;;;;5054095;28;20032;-67
2022/05/09 08:33:59;;;;;;;8.20;2.78;;;18.20;97.20;;;;;;5072070;28;20115;-69
2022/05/09 08:39:10;;;;;;;7.95;2.40;;;18.50;96.10;;;;;;5054272;28;20037;-67
2022/05/09 08:41:55;;;;;;;8.35;2.42;;;18.60;94.90;;;;;;5054559;28;20047;-68
2022/05/09 08:44:51;;;;;;;8.25;2.03;;;18.70;95.30;;;;;;5054355;28;20426;-67
2022/05/09 08:47:49;;;;;;;7.55;2.53;;;19.00;95.40;;;;;;5054541;28;20044;-67
2022/05/09 08:50:17;;;;;;;8.05;2.40;;;19.30;94.70;;;;;;5037563;28;20037;-67
2022/05/09 08:52:50;;;;;;;7.30;2.33;;;19.50;94.90;;;;;;5053859;28;20041;-68
2022/05/09 08:55:29;;;;;;;8.32;2.28;;;19.60;94.10;;;;;;5054079;28;20044;-68
2022/05/09 08:58:03;;;;;;;9.88;2.80;;;19.70;93.90;;;;;;5053950;28;20423;-67
2022/05/09 09:00:30;;;;;;;8.50;2.03;;;19.90;93.30;;;;;;5054099;28;20044;-68
2022/05/09 09:03:31;;;;;;;10.75;2.20;;;20.00;92.50;;;;;;5053861;28;20047;-68
2022/05/09 09:06:34;;;;;;;8.23;2.33;;;20.10;93.40;;;;;;5054019;28;20087;-69
2022/05/09 09:09:11;;;;;;;9.05;2.33;;;20.30;91.70;;;;;;5053283;28;20041;-68
2022/05/09 09:12:04;;;;;;;9.27;2.42;;;20.30;91.10;;;;;;5033903;28;20061;-67
2022/05/09 09:14:51;;;;;;;6.85;2.53;;;20.30;90.60;;;;;;5034104;28;20502;-69
2022/05/09 09:18:07;;;;;;;10.68;2.53;;;20.50;91.50;;;;;;5033738;28;20099;-69
2022/05/09 09:20:35;;;;;;;6.72;2.30;;;20.70;91.10;;;;;;4935228;28;20035;-67
2022/05/09 09:23:31;;;;;;;10.18;2.65;;;20.90;91.40;;;;;;4935260;28;20130;-68
2022/05/09 09:25:59;;;;;;;10.27;2.58;;;21.00;90.80;;;;;;4936506;28;20051;-68
2022/05/09 09:28:36;;;;;;;8.95;2.58;;;21.10;90.50;;;;;;4951370;29;20585;-68
2022/05/09 09:31:08;;;;;;;7.10;2.20;;;21.10;90.20;;;;;;4952893;28;20379;-69
2022/05/09 09:33:39;;;;;;;7.35;2.58;;;21.30;90.00;;;;;;4954411;28;20517;-68
2022/05/09 09:36:13;;;;;;;8.98;2.25;;;21.40;89.90;;;;;;4954257;28;20055;-67
2022/05/09 09:38:45;;;;;;;5.35;2.08;;;21.60;89.80;;;;;;4954278;28;20134;-68
2022/05/09 09:41:30;;;;;;;8.18;2.42;;;21.80;90.20;;;;;;4954321;28;20054;-68
2022/05/09 09:44:20;;;;;;;7.25;2.60;;;22.00;88.50;;;;;;4954140;28;20043;-69
2022/05/09 09:47:03;;;;;;;6.10;1.98;;;22.10;87.80;;;;;;4898431;29;20067;-68
2022/05/09 09:49:29;;;;;;;9.65;2.40;;;22.20;88.60;;;;;;4931567;29;20050;-68
2022/05/09 09:51:57;;;;;;;8.73;2.20;;;22.30;85.80;;;;;;4931486;29;20072;-68
2022/05/09 09:54:31;;;;;;;7.45;2.47;;;22.40;86.40;;;;;;4947256;28;20504;-68
2022/05/09 09:57:15;;;;;;;6.97;2.28;;;22.60;84.40;;;;;;4973203;28;20035;-68
2022/05/09 09:59:41;;;;;;;7.70;2.05;;;22.80;84.10;;;;;;4973025;28;20054;-68
2022/05/09 10:02:12;;;;;;;8.98;2.30;;;22.90;82.90;;;;;;4973154;28;20108;-69
2022/05/09 10:04:38;;;;;;;9.93;2.33;;;23.00;81.60;;;;;;4972957;28;20394;-68
2022/05/09 10:07:14;;;;;;;9.68;2.35;;;23.00;80.30;;;;;;4973036;28;20049;-67
2022/05/09 10:09:43;;;;;;;6.57;1.88;;;23.00;79.00;;;;;;4962381;28;20052;-68
2022/05/09 10:12:23;;;;;;;8.65;2.15;;;23.00;79.70;;;;;;4992500;28;20532;-69
2022/05/09 10:14:51;;;;;;;7.35;2.22;;;23.20;81.00;;;;;;4992270;28;20502;-68
2022/05/09 10:17:25;;;;;;;6.20;2.00;;;23.40;79.50;;;;;;4992090;28;20057;-69
2022/05/09 10:19:53;;;;;;;10.88;2.70;;;23.50;78.90;;;;;;4992289;28;20107;-68
2022/05/09 10:25:24;;;;;;;7.32;1.95;;;23.00;75.30;;;;;;5069193;28;20048;-68
2022/05/09 10:28:10;;;;;;;8.23;2.17;;;23.20;76.70;;;;;;5068847;28;20384;-68
2022/05/09 10:30:40;;;;;;;7.13;2.30;;;23.50;75.50;;;;;;5039659;28;20151;-68
2022/05/09 10:33:38;;;;;;;8.73;2.10;;;23.40;73.30;;;;;;5048667;28;20033;-69
2022/05/09 10:36:19;;;;;;;7.68;2.15;;;23.50;75.20;;;;;;5049073;28;20041;-69
2022/05/09 10:39:19;;;;;;;9.70;2.63;;;23.80;75.30;;;;;;5048908;28;20534;-68
2022/05/09 10:41:55;;;;;;;5.85;1.85;;;23.90;73.80;;;;;;5065558;28;20506;-69
2022/05/09 10:44:36;;;;;;;8.05;2.03;;;23.90;72.40;;;;;;5052503;28;20074;-69
2022/05/09 10:47:08;;;;;;;10.23;2.53;;;24.00;71.90;;;;;;5052279;28;20036;-69
2022/05/09 10:49:50;;;;;;;5.70;1.95;;;24.20;71.70;;;;;;5069220;28;20048;-69
2022/05/09 10:52:48;;;;;;;8.95;2.22;;;24.40;72.20;;;;;;5069798;28;20414;-68
2022/05/09 10:55:30;;;;;;;6.53;1.80;;;24.60;72.20;;;;;;5073215;28;20071;-68
2022/05/09 10:58:24;;;;;;;6.28;1.85;;;24.70;71.80;;;;;;5073192;28;20551;-69
2022/05/09 11:01:02;;;;;;;6.63;2.25;;;24.60;71.70;;;;;;5073035;28;20127;-69
2022/05/09 11:03:35;;;;;;;8.15;2.20;;;24.70;70.30;;;;;;5073179;28;20506;-69
2022/05/09 11:06:19;;;;;;;6.90;1.98;;;23.90;66.00;;;;;;5073267;28;20064;-69
2022/05/09 11:09:09;;;;;;;6.13;2.38;;;23.60;68.40;;;;;;5073142;28;20037;-68
2022/05/09 11:11:43;;;;;;;4.65;1.88;;;23.60;69.50;;;;;;5075699;28;20070;-69
2022/05/09 11:14:27;;;;;;;4.88;2.13;;;23.70;69.70;;;;;;5094161;28;20039;-69
2022/05/09 11:17:14;;;;;;;8.55;2.55;;;23.70;68.30;;;;;;5076330;28;20044;-69
2022/05/09 11:20:10;;;;;;;7.57;2.35;;;23.50;67.80;;;;;;5076414;28;20043;-68
2022/05/09 11:22:53;;;;;;;4.45;1.80;;;23.60;68.40;;;;;;5056822;28;20052;-68
2022/05/09 11:25:18;;;;;;;11.52;2.53;;;23.80;70.10;;;;;;5055818;28;20118;-69
2022/05/09 11:27:48;;;;;;;9.00;3.00;;;23.90;68.40;;;;;;5056144;28;20036;-69
2022/05/09 11:30:53;;;;;;;9.10;2.90;;;23.90;68.70;;;;;;5055805;28;20045;-67
2022/05/09 11:33:42;;;;;;;4.53;2.17;;;24.00;69.70;;;;;;4956587;28;20560;-68
2022/05/09 11:36:25;;;;;;;6.13;2.67;;;24.00;69.00;;;;;;4971549;28;20046;-69
2022/05/09 11:39:14;;;;;;;7.05;2.33;;;24.10;69.00;;;;;;4973601;28;20073;-69
2022/05/09 11:45:13;;;;;;;6.45;2.10;;;24.10;70.40;;;;;;4958512;28;20046;-69
2022/05/09 11:48:12;;;;;;;10.75;2.60;;;24.20;70.20;;;;;;4961322;28;20054;-70
2022/05/09 11:50:46;;;;;;;6.47;2.30;;;24.00;67.60;;;;;;4961424;28;20051;-69
2022/05/09 11:53:14;;;;;;;6.30;2.30;;;23.90;68.80;;;;;;4964932;28;20122;-69
2022/05/09 11:55:41;;;;;;;5.43;2.28;;;23.90;70.00;;;;;;4956685;28;20073;-69
2022/05/09 11:58:07;;;;;;;8.57;2.10;;;23.80;68.50;;;;;;4956472;28;20512;-69
2022/05/09 12:00:36;;;;;;;9.35;2.80;;;23.60;67.60;;;;;;4957001;28;20458;-68
2022/05/09 12:03:11;;;;;;;6.72;2.63;;;23.30;67.00;;;;;;4975471;28;20076;-69
2022/05/09 12:05:38;;;;;;;5.68;1.90;;;23.20;67.90;;;;;;4990524;28;20042;-69
2022/05/09 12:08:42;;;;;;;4.60;2.03;;;23.10;69.40;;;;;;4960324;28;20043;-69
2022/05/09 12:11:22;;;;;;;7.90;2.10;;;23.30;70.20;;;;;;5032529;28;20131;-70
2022/05/09 12:13:51;;;;;;;10.20;2.58;;;23.30;68.90;;;;;;5055269;28;20095;-69
2022/05/09 12:16:35;;;;;;;8.93;2.10;;;23.20;68.90;;;;;;5055085;28;20043;-69
2022/05/09 12:19:03;;;;;;;6.97;1.92;;;23.10;67.80;;;;;;5055317;28;20517;-69
2022/05/09 12:21:32;;;;;;;5.85;1.80;;;23.00;68.00;;;;;;5054759;28;20137;-69
2022/05/09 12:24:09;;;;;;;6.40;2.05;;;23.20;68.80;;;;;;5054967;28;20119;-70
2022/05/09 12:26:36;;;;;;;6.70;1.70;;;23.10;68.00;;;;;;5054676;28;20033;-69
2022/05/09 12:29:11;;;;;;;3.40;1.30;;;23.00;68.50;;;;;;5054845;28;20094;-69
2022/05/09 12:31:43;;;;;;;8.10;1.95;;;23.20;69.00;;;;;;5037945;28;20120;-69
2022/05/09 12:34:12;;;;;;;4.30;1.65;;;23.20;67.50;;;;;;5055023;28;20156;-70
2022/05/09 12:36:38;;;;;;;6.13;1.63;;;23.20;67.40;;;;;;5054452;28;20036;-69
2022/05/09 12:39:28;;;;;;;5.47;1.63;;;23.00;66.70;;;;;;5054756;28;20040;-69
2022/05/09 12:41:56;;;;;;;6.00;1.98;;;22.80;66.60;;;;;;5072567;28;20222;-69
2022/05/09 12:44:48;;;;;;;5.28;1.85;;;22.90;67.10;;;;;;5072412;28;20415;-69
2022/05/09 12:47:20;;;;;;;4.67;1.53;;;22.90;66.50;;;;;;5054496;28;20037;-69
2022/05/09 12:49:53;;;;;;;5.85;2.00;;;23.00;68.00;;;;;;5054563;28;20048;-69
2022/05/09 12:52:22;;;;;;;5.68;1.83;;;23.00;67.00;;;;;;5054422;28;20044;-68
2022/05/09 12:57:38;;;;;;;6.88;1.90;;;23.00;68.50;;;;;;4972900;28;20121;-69
2022/05/09 13:00:17;;;;;;;6.75;1.90;;;23.00;67.30;;;;;;4958365;28;20202;-69
2022/05/09 13:02:44;;;;;;;5.20;2.10;;;22.80;67.80;;;;;;4974258;28;20154;-69
2022/05/09 13:05:13;;;;;;;6.35;2.33;;;22.70;67.60;;;;;;4973864;28;20042;-70
2022/05/09 13:07:59;;;;;;;6.00;1.92;;;22.60;67.40;;;;;;4971175;28;20224;-70
2022/05/09 13:10:27;;;;;;;5.00;1.77;;;22.60;67.80;;;;;;4982429;28;20050;-70
2022/05/09 13:13:00;;;;;;;5.80;2.00;;;22.50;67.30;;;;;;4993605;28;20455;-69
2022/05/09 13:15:26;;;;;;;8.25;2.25;;;22.70;68.90;;;;;;5008376;28;20559;-69
2022/05/09 13:18:05;;;;;;;7.32;1.63;;;22.70;67.90;;;;;;4993204;28;20072;-69
2022/05/09 13:20:38;;;;;;;4.53;1.92;;;22.70;66.50;;;;;;4976083;28;20113;-70
2022/05/09 13:23:07;;;;;;;5.97;2.13;;;22.50;67.30;;;;;;4991033;28;20046;-70